Time;durP1;ratioP1;P1;durP2;ratioP2;P2;SDS_P1;SDS_P2;PMS_P1;PMS_P2;Temp;Humidity;BMP_temperature;BMP_pressure;BME280_temperature;BME280_humidity;BME280_pressure;Samples;Min_cycle;Max_cycle;Signal;HPM_P1;HPM_P2
2021/05/08 00:00:16;;;;;;;2.00;0.80;;;3.70;99.90;;;;;;5024886;28;20280;-82
2021/05/08 00:02:42;;;;;;;1.00;0.90;;;3.70;99.90;;;;;;5026684;28;20665;-80
2021/05/08 00:05:08;;;;;;;0.60;0.60;;;3.60;99.90;;;;;;5025511;28;20192;-79
2021/05/08 00:07:33;;;;;;;4.73;1.20;;;3.60;99.90;;;;;;5032250;28;20676;-78
2021/05/08 00:09:59;;;;;;;0.73;0.73;;;3.50;99.90;;;;;;5026154;28;20186;-79
2021/05/08 00:12:25;;;;;;;0.70;0.70;;;3.50;99.90;;;;;;5026429;28;20535;-78
2021/05/08 00:14:50;;;;;;;1.10;0.90;;;3.50;99.90;;;;;;5025508;28;20186;-80
2021/05/08 00:17:16;;;;;;;1.10;1.00;;;3.60;99.90;;;;;;5026225;28;20648;-79
2021/05/08 00:19:41;;;;;;;1.00;0.73;;;3.60;99.90;;;;;;5024166;28;20190;-79
2021/05/08 00:22:07;;;;;;;0.97;0.90;;;3.60;99.90;;;;;;5025412;28;20282;-80
2021/05/08 00:24:32;;;;;;;1.27;0.93;;;3.50;99.90;;;;;;5024661;28;20194;-81
2021/05/08 00:26:58;;;;;;;0.50;0.50;;;3.50;99.90;;;;;;5025394;28;20207;-78
2021/05/08 00:29:24;;;;;;;1.17;0.90;;;3.50;99.90;;;;;;5024717;28;20639;-82
2021/05/08 00:31:50;;;;;;;0.70;0.67;;;3.50;99.90;;;;;;5025197;28;20198;-79
2021/05/08 00:34:15;;;;;;;1.20;0.97;;;3.40;99.90;;;;;;5025040;28;20183;-76
2021/05/08 00:36:41;;;;;;;1.27;0.80;;;3.30;99.90;;;;;;5025213;28;20302;-78
2021/05/08 00:39:06;;;;;;;0.90;0.90;;;3.30;99.90;;;;;;5024976;28;20195;-78
2021/05/08 00:41:32;;;;;;;1.23;1.07;;;3.20;99.90;;;;;;5040837;28;20703;-81
2021/05/08 00:43:59;;;;;;;0.80;0.70;;;3.20;99.90;;;;;;5024451;28;20245;-81
2021/05/08 00:46:26;;;;;;;0.60;0.60;;;3.20;99.90;;;;;;5040855;28;20214;-76
2021/05/08 00:48:54;;;;;;;1.97;0.80;;;3.20;99.90;;;;;;5040825;28;20179;-81
2021/05/08 00:51:20;;;;;;;0.63;0.63;;;3.20;99.90;;;;;;5033462;28;20187;-80
2021/05/08 00:53:46;;;;;;;1.83;1.07;;;3.30;99.90;;;;;;5023547;28;20646;-77
2021/05/08 00:56:12;;;;;;;1.10;0.80;;;3.20;99.90;;;;;;5022794;28;20213;-82
2021/05/08 00:58:38;;;;;;;0.77;0.57;;;3.20;99.90;;;;;;5030501;28;20193;-81
2021/05/08 01:01:03;;;;;;;1.67;1.00;;;3.20;99.90;;;;;;5022395;28;20191;-80
2021/05/08 01:03:29;;;;;;;1.97;1.20;;;3.20;99.90;;;;;;5024680;28;20183;-81
2021/05/08 01:05:55;;;;;;;1.23;1.13;;;3.30;99.90;;;;;;5024604;28;20997;-81
2021/05/08 01:08:21;;;;;;;0.87;0.80;;;3.30;99.90;;;;;;5024543;28;20198;-80
2021/05/08 01:10:47;;;;;;;1.10;1.00;;;3.30;99.90;;;;;;5025066;28;21017;-80
2021/05/08 01:13:13;;;;;;;0.60;0.60;;;3.30;99.90;;;;;;5028262;28;20279;-79
2021/05/08 01:15:39;;;;;;;2.87;1.60;;;3.30;99.90;;;;;;5036388;28;20354;-80
2021/05/08 01:18:05;;;;;;;2.57;1.00;;;3.30;99.90;;;;;;5028374;28;20642;-80
2021/05/08 01:20:31;;;;;;;1.07;0.97;;;3.30;99.90;;;;;;5027373;28;20185;-80
2021/05/08 01:22:56;;;;;;;1.53;1.17;;;3.20;99.90;;;;;;5027165;28;21153;-82
2021/05/08 01:25:25;;;;;;;1.10;1.00;;;3.10;99.90;;;;;;5027918;28;20285;-80
2021/05/08 01:27:53;;;;;;;1.30;1.00;;;3.00;99.90;;;;;;5043416;28;20293;-82
2021/05/08 01:30:22;;;;;;;2.20;1.40;;;2.90;99.90;;;;;;5026592;28;20672;-77
2021/05/08 01:32:48;;;;;;;1.00;0.90;;;3.00;99.90;;;;;;5026766;28;20179;-82
2021/05/08 01:35:14;;;;;;;1.10;0.97;;;2.90;99.90;;;;;;5026995;28;20272;-81
2021/05/08 01:37:40;;;;;;;1.93;1.80;;;2.90;99.90;;;;;;5027934;28;21013;-79
2021/05/08 01:40:12;;;;;;;1.60;1.00;;;2.90;99.90;;;;;;5026916;28;20179;-81
2021/05/08 01:42:39;;;;;;;2.07;1.40;;;2.90;99.90;;;;;;5026551;28;20183;-79
2021/05/08 01:45:11;;;;;;;1.57;1.37;;;2.90;99.90;;;;;;5025505;28;20277;-80
2021/05/08 01:47:38;;;;;;;1.10;0.93;;;2.80;99.90;;;;;;5027173;28;20277;-80
2021/05/08 01:50:05;;;;;;;1.20;1.03;;;2.80;99.90;;;;;;5033832;28;20186;-81
2021/05/08 01:52:30;;;;;;;1.23;1.00;;;2.80;99.90;;;;;;5042786;28;20746;-79
2021/05/08 01:54:56;;;;;;;1.13;1.03;;;2.80;99.90;;;;;;5027419;28;20211;-80
2021/05/08 01:57:22;;;;;;;2.53;1.40;;;2.70;99.90;;;;;;5027637;28;20214;-81
2021/05/08 01:59:47;;;;;;;1.40;1.30;;;2.60;99.90;;;;;;5027013;28;20313;-80
2021/05/08 02:02:13;;;;;;;1.43;1.20;;;2.70;99.90;;;;;;5025431;28;20182;-82
2021/05/08 02:04:39;;;;;;;1.27;1.17;;;2.70;99.90;;;;;;5026042;28;20265;-80
2021/05/08 02:07:04;;;;;;;1.23;1.13;;;2.70;99.90;;;;;;5034112;28;20211;-78
2021/05/08 02:09:30;;;;;;;2.03;1.50;;;2.60;99.90;;;;;;5024768;28;20194;-78
2021/05/08 02:11:56;;;;;;;1.00;1.00;;;2.60;99.90;;;;;;5025026;28;20190;-80
2021/05/08 02:14:22;;;;;;;1.23;1.10;;;2.60;99.90;;;;;;5024566;28;20183;-79
2021/05/08 02:16:47;;;;;;;1.37;1.20;;;2.50;99.90;;;;;;5024591;28;20263;-80
2021/05/08 02:19:13;;;;;;;1.10;1.00;;;2.60;99.90;;;;;;5025927;28;20186;-77
2021/05/08 02:21:39;;;;;;;1.20;1.00;;;2.60;99.90;;;;;;5024544;28;20187;-81
2021/05/08 02:24:05;;;;;;;1.10;1.00;;;2.50;99.90;;;;;;5025125;28;20221;-78
2021/05/08 02:26:31;;;;;;;1.67;1.33;;;2.50;99.90;;;;;;5027964;28;20207;-80
2021/05/08 02:28:57;;;;;;;1.97;1.70;;;2.40;99.90;;;;;;5034940;28;20218;-81
2021/05/08 02:31:23;;;;;;;1.57;1.47;;;2.30;99.90;;;;;;5025064;28;20214;-80
2021/05/08 02:33:48;;;;;;;1.67;1.57;;;2.30;99.90;;;;;;5024886;28;20879;-80
2021/05/08 02:36:14;;;;;;;1.23;1.13;;;2.30;99.90;;;;;;5026212;28;20298;-80
2021/05/08 02:38:39;;;;;;;1.67;1.50;;;2.30;99.90;;;;;;5028398;28;20210;-80
2021/05/08 02:41:05;;;;;;;5.17;1.53;;;2.20;99.90;;;;;;5028260;28;20194;-79
2021/05/08 02:43:31;;;;;;;2.27;1.33;;;2.20;99.90;;;;;;5027560;28;20223;-81
2021/05/08 02:45:56;;;;;;;2.43;2.00;;;2.00;99.90;;;;;;5027875;28;20215;-79
2021/05/08 02:48:22;;;;;;;1.47;1.33;;;2.00;99.90;;;;;;5026973;28;20210;-78
2021/05/08 02:50:47;;;;;;;2.10;1.90;;;2.00;99.90;;;;;;5027787;28;20183;-81
2021/05/08 02:53:13;;;;;;;2.53;1.90;;;2.00;99.90;;;;;;5027244;28;20195;-80
2021/05/08 02:55:39;;;;;;;2.20;2.03;;;1.90;99.90;;;;;;5026128;28;20924;-82
2021/05/08 02:58:04;;;;;;;1.57;1.47;;;2.00;99.90;;;;;;5027527;28;20190;-80
2021/05/08 03:00:30;;;;;;;3.13;2.23;;;1.90;99.90;;;;;;5041754;28;20179;-80
2021/05/08 03:02:56;;;;;;;1.80;1.70;;;2.00;99.90;;;;;;5026139;28;20555;-80
2021/05/08 03:05:22;;;;;;;2.50;2.23;;;1.90;99.90;;;;;;5024423;28;20280;-80
2021/05/08 03:07:47;;;;;;;2.53;2.20;;;1.90;99.90;;;;;;5025991;28;20290;-80
2021/05/08 03:10:13;;;;;;;2.07;1.83;;;1.80;99.90;;;;;;5032809;28;20666;-79
2021/05/08 03:12:39;;;;;;;2.33;1.73;;;1.80;99.90;;;;;;5025723;28;21169;-79
2021/05/08 03:15:06;;;;;;;2.67;2.17;;;1.70;99.90;;;;;;5025866;28;20668;-80
2021/05/08 03:17:31;;;;;;;2.50;2.30;;;1.80;99.90;;;;;;5043311;28;20570;-80
2021/05/08 03:19:58;;;;;;;2.67;2.10;;;1.80;99.90;;;;;;5025872;28;20178;-80
2021/05/08 03:22:23;;;;;;;2.83;1.97;;;1.90;99.90;;;;;;5042046;28;20193;-79
2021/05/08 03:24:49;;;;;;;2.07;1.73;;;1.80;99.90;;;;;;5025323;28;20187;-78
2021/05/08 03:27:15;;;;;;;1.43;1.33;;;1.70;99.90;;;;;;5025560;28;20225;-79
2021/05/08 03:29:40;;;;;;;2.33;1.70;;;1.80;99.90;;;;;;5027285;28;20218;-78
2021/05/08 03:32:06;;;;;;;2.53;2.13;;;1.70;99.90;;;;;;5026428;28;20197;-78
2021/05/08 03:34:31;;;;;;;2.77;2.20;;;1.70;99.90;;;;;;5024742;28;20627;-79
2021/05/08 03:36:57;;;;;;;2.70;2.30;;;1.60;99.90;;;;;;5025676;28;20289;-80
2021/05/08 03:39:23;;;;;;;2.67;2.47;;;1.60;99.90;;;;;;5027102;28;20187;-79
2021/05/08 03:41:48;;;;;;;3.50;2.57;;;1.60;99.90;;;;;;5025909;28;20187;-81
2021/05/08 03:44:14;;;;;;;2.33;2.13;;;1.50;99.90;;;;;;5041213;28;20191;-81
2021/05/08 03:46:39;;;;;;;4.90;2.57;;;1.50;99.90;;;;;;5025013;28;20727;-79
2021/05/08 03:49:06;;;;;;;2.63;2.23;;;1.50;99.90;;;;;;5026817;28;20241;-79
2021/05/08 03:51:32;;;;;;;2.60;2.20;;;1.50;99.90;;;;;;5025033;28;20191;-79
2021/05/08 03:53:58;;;;;;;2.37;2.17;;;1.70;99.90;;;;;;5040935;28;20711;-79
2021/05/08 03:56:23;;;;;;;2.87;2.60;;;1.80;99.90;;;;;;5025260;28;20210;-79
2021/05/08 03:58:49;;;;;;;4.17;3.00;;;1.70;99.90;;;;;;5026790;28;20236;-80
2021/05/08 04:01:15;;;;;;;2.83;2.43;;;1.70;99.90;;;;;;5025379;28;20183;-79
2021/05/08 04:03:41;;;;;;;2.97;2.67;;;1.60;99.90;;;;;;5026717;28;20183;-80
2021/05/08 04:06:06;;;;;;;2.60;2.10;;;1.70;99.90;;;;;;5041317;28;20680;-80
2021/05/08 04:08:32;;;;;;;3.87;2.60;;;1.70;99.90;;;;;;5025167;28;20653;-79
2021/05/08 04:10:58;;;;;;;3.67;2.90;;;1.70;99.90;;;;;;5025389;28;20637;-83
2021/05/08 04:13:24;;;;;;;4.13;2.83;;;1.80;99.90;;;;;;5026372;28;20595;-77
2021/05/08 04:15:50;;;;;;;3.40;2.97;;;1.80;99.90;;;;;;5024949;28;20579;-80
2021/05/08 04:18:16;;;;;;;3.40;2.63;;;2.00;99.90;;;;;;5025528;28;20202;-78
2021/05/08 04:20:45;;;;;;;5.37;3.23;;;2.10;99.90;;;;;;5026768;28;20179;-78
2021/05/08 04:23:10;;;;;;;4.37;2.37;;;2.20;99.90;;;;;;5026029;28;20183;-80
2021/05/08 04:25:36;;;;;;;3.73;3.03;;;2.30;99.90;;;;;;5024267;28;20198;-80
2021/05/08 04:28:02;;;;;;;3.57;2.63;;;2.20;99.90;;;;;;5025474;28;20231;-82
2021/05/08 04:30:31;;;;;;;3.27;2.77;;;2.20;99.90;;;;;;5025224;28;20305;-81
2021/05/08 04:32:57;;;;;;;5.67;3.20;;;2.30;99.90;;;;;;5026463;28;20175;-78
2021/05/08 04:35:22;;;;;;;3.47;3.07;;;2.30;99.90;;;;;;5025907;28;20942;-82
2021/05/08 04:37:48;;;;;;;3.90;3.50;;;2.40;99.90;;;;;;5024364;28;20205;-79
2021/05/08 04:40:13;;;;;;;3.17;2.67;;;2.70;99.90;;;;;;5026433;28;20186;-79
2021/05/08 04:42:39;;;;;;;3.10;2.63;;;3.00;99.90;;;;;;5024912;28;20530;-78
2021/05/08 04:45:06;;;;;;;2.77;2.53;;;3.40;99.90;;;;;;5026741;28;20609;-80
2021/05/08 04:47:31;;;;;;;3.10;2.70;;;3.90;99.90;;;;;;5029665;28;20209;-80
2021/05/08 04:50:01;;;;;;;3.07;2.47;;;4.20;99.90;;;;;;5029061;28;20577;-79
2021/05/08 04:52:27;;;;;;;3.20;2.83;;;4.80;99.90;;;;;;5029306;28;20168;-79
2021/05/08 04:54:53;;;;;;;3.60;2.90;;;5.20;99.90;;;;;;5030088;28;20617;-80
2021/05/08 04:57:19;;;;;;;2.97;2.67;;;6.20;99.90;;;;;;5029701;28;20182;-81
2021/05/08 04:59:44;;;;;;;2.67;2.47;;;7.20;99.90;;;;;;5029927;28;20193;-79
2021/05/08 05:02:10;;;;;;;2.90;2.53;;;7.90;99.90;;;;;;5029657;28;20187;-80
2021/05/08 05:04:35;;;;;;;3.10;2.50;;;8.50;99.90;;;;;;5029194;28;20217;-80
2021/05/08 05:07:01;;;;;;;2.67;2.47;;;9.00;99.90;;;;;;5028059;28;20238;-82
2021/05/08 05:09:28;;;;;;;4.67;2.97;;;9.20;99.90;;;;;;5029358;28;20175;-80
2021/05/08 05:11:54;;;;;;;3.83;3.33;;;9.60;99.90;;;;;;5027860;28;20719;-80
2021/05/08 05:14:19;;;;;;;2.60;2.40;;;9.90;99.90;;;;;;5027765;28;20183;-81
2021/05/08 05:16:45;;;;;;;3.17;2.80;;;10.20;99.90;;;;;;5028195;28;20711;-81
2021/05/08 05:19:10;;;;;;;3.13;2.33;;;10.20;99.90;;;;;;5028403;28;20225;-80
2021/05/08 05:21:36;;;;;;;3.70;2.75;;;10.40;99.90;;;;;;5028725;28;20276;-79
2021/05/08 05:24:02;;;;;;;3.03;2.72;;;10.90;99.90;;;;;;5028201;28;21049;-79
2021/05/08 05:26:27;;;;;;;3.85;2.78;;;11.10;99.90;;;;;;5027467;28;20676;-81
2021/05/08 05:28:54;;;;;;;3.25;2.80;;;11.60;99.90;;;;;;5027715;28;20210;-79
2021/05/08 05:31:20;;;;;;;4.55;3.50;;;11.60;99.90;;;;;;5027126;28;20179;-80
2021/05/08 05:33:45;;;;;;;3.20;2.90;;;11.60;99.90;;;;;;5026569;28;20174;-80
2021/05/08 05:36:11;;;;;;;2.90;2.67;;;11.90;99.90;;;;;;5024016;28;20207;-81
2021/05/08 05:38:36;;;;;;;3.40;3.03;;;12.20;99.90;;;;;;5041759;28;20541;-81
2021/05/08 05:41:02;;;;;;;3.25;2.95;;;12.40;99.90;;;;;;5026746;28;20183;-80
2021/05/08 05:43:28;;;;;;;3.03;2.70;;;12.60;99.90;;;;;;5025690;28;20714;-80
2021/05/08 05:45:53;;;;;;;3.60;2.85;;;12.90;99.90;;;;;;5026506;28;20210;-79
2021/05/08 05:48:20;;;;;;;4.18;3.65;;;13.10;99.90;;;;;;5026376;28;20175;-80
2021/05/08 05:50:46;;;;;;;3.78;3.38;;;13.60;99.90;;;;;;5026491;28;20186;-79
2021/05/08 05:53:13;;;;;;;3.40;3.10;;;13.90;99.90;;;;;;5026276;28;20272;-79
2021/05/08 05:55:38;;;;;;;4.13;3.17;;;14.20;99.90;;;;;;5026974;28;21099;-81
2021/05/08 05:58:04;;;;;;;3.25;2.92;;;14.20;99.90;;;;;;5026472;28;20187;-81
2021/05/08 06:00:30;;;;;;;3.70;3.40;;;14.20;99.90;;;;;;5027959;28;20179;-80
2021/05/08 06:02:55;;;;;;;3.45;3.13;;;14.20;99.90;;;;;;5027951;28;20202;-80
2021/05/08 06:05:21;;;;;;;4.25;3.25;;;14.30;99.90;;;;;;5028019;28;20207;-80
2021/05/08 06:07:47;;;;;;;3.30;3.00;;;14.40;99.90;;;;;;5025911;28;20876;-81
2021/05/08 06:10:13;;;;;;;3.08;2.78;;;14.60;99.90;;;;;;5025506;28;20194;-80
2021/05/08 06:12:39;;;;;;;3.85;3.15;;;15.00;99.90;;;;;;5026801;28;20189;-80
2021/05/08 06:15:06;;;;;;;2.92;2.72;;;14.90;99.90;;;;;;5027761;28;20187;-80
2021/05/08 06:17:32;;;;;;;3.65;3.30;;;15.00;99.90;;;;;;5027260;28;20183;-81
2021/05/08 06:19:58;;;;;;;3.63;3.25;;;14.80;99.90;;;;;;5027284;28;20225;-80
2021/05/08 06:22:23;;;;;;;3.17;2.92;;;14.90;99.90;;;;;;5027703;28;20179;-80
2021/05/08 06:24:49;;;;;;;4.95;3.78;;;15.10;99.90;;;;;;5025740;28;20273;-80
2021/05/08 06:27:14;;;;;;;3.85;3.55;;;14.80;99.90;;;;;;5027311;28;20295;-80
2021/05/08 06:29:40;;;;;;;3.97;3.47;;;14.90;99.90;;;;;;5026084;28;20256;-81
2021/05/08 06:32:06;;;;;;;4.28;3.78;;;15.10;99.90;;;;;;5027738;28;20182;-80
2021/05/08 06:34:32;;;;;;;3.35;3.05;;;14.80;99.90;;;;;;5026827;28;20186;-80
2021/05/08 06:37:02;;;;;;;3.92;3.15;;;14.30;99.90;;;;;;5026063;28;20295;-80
2021/05/08 06:39:29;;;;;;;3.45;3.15;;;13.70;99.90;;;;;;5025063;28;20185;-80
2021/05/08 06:41:55;;;;;;;4.57;3.78;;;13.20;99.90;;;;;;5025569;28;20179;-80
2021/05/08 06:44:24;;;;;;;4.55;3.80;;;12.80;99.90;;;;;;5026026;28;20187;-79
2021/05/08 06:46:50;;;;;;;3.65;3.35;;;12.40;99.90;;;;;;5026774;28;20207;-78
2021/05/08 06:49:15;;;;;;;3.65;3.15;;;12.10;99.90;;;;;;5028856;28;21042;-80
2021/05/08 06:51:41;;;;;;;3.10;2.85;;;12.00;99.90;;;;;;5026538;28;20175;-82
2021/05/08 06:54:07;;;;;;;3.72;3.28;;;11.90;99.90;;;;;;5024949;28;20652;-81
2021/05/08 06:56:32;;;;;;;3.38;3.05;;;11.70;99.90;;;;;;5025273;28;20225;-80
2021/05/08 06:58:58;;;;;;;3.40;3.10;;;11.60;99.90;;;;;;5025564;28;20191;-78
2021/05/08 07:01:24;;;;;;;4.18;2.92;;;11.70;99.90;;;;;;5024735;28;20187;-78
2021/05/08 07:03:50;;;;;;;4.47;3.00;;;11.70;99.90;;;;;;5024973;28;20187;-76
2021/05/08 07:06:15;;;;;;;2.60;2.40;;;11.50;99.90;;;;;;5023922;28;20280;-75
2021/05/08 07:08:41;;;;;;;3.10;2.67;;;11.50;99.90;;;;;;5021756;28;20649;-75
2021/05/08 07:11:06;;;;;;;3.37;2.67;;;11.40;99.90;;;;;;5023098;28;20211;-76
2021/05/08 07:13:32;;;;;;;3.53;3.00;;;11.30;99.90;;;;;;5023004;28;20186;-76
2021/05/08 07:15:57;;;;;;;3.67;3.00;;;11.40;99.90;;;;;;5023071;28;20290;-76
2021/05/08 07:18:24;;;;;;;3.50;2.80;;;11.50;99.90;;;;;;5023636;28;20182;-75
2021/05/08 07:20:51;;;;;;;3.37;2.70;;;11.40;99.90;;;;;;5021454;28;20210;-75
2021/05/08 07:23:16;;;;;;;4.17;3.77;;;11.50;99.90;;;;;;5022784;28;20186;-76
2021/05/08 07:25:42;;;;;;;3.07;2.77;;;11.50;99.90;;;;;;5022903;28;20266;-75
2021/05/08 07:28:13;;;;;;;3.30;2.97;;;11.60;99.90;;;;;;5022389;28;20246;-75
2021/05/08 07:30:40;;;;;;;3.20;2.87;;;11.50;99.90;;;;;;5022835;28;20175;-75
2021/05/08 07:33:06;;;;;;;5.37;3.20;;;11.60;99.90;;;;;;5024962;28;20178;-76
2021/05/08 07:35:32;;;;;;;3.53;3.10;;;11.70;99.90;;;;;;5025397;28;20214;-79
2021/05/08 07:37:58;;;;;;;3.10;2.80;;;11.90;99.90;;;;;;5025404;28;20236;-81
2021/05/08 07:40:24;;;;;;;3.57;3.27;;;12.00;99.90;;;;;;5025245;28;20277;-80
2021/05/08 07:42:49;;;;;;;3.60;3.10;;;11.90;99.90;;;;;;5026144;28;20620;-82
2021/05/08 07:45:15;;;;;;;3.03;2.53;;;11.90;99.90;;;;;;5025834;28;20290;-80
2021/05/08 07:47:41;;;;;;;2.70;2.40;;;12.10;99.90;;;;;;5025905;28;20209;-79
2021/05/08 07:50:08;;;;;;;2.80;2.33;;;12.20;99.90;;;;;;5024887;28;20183;-81
2021/05/08 07:52:34;;;;;;;3.40;2.70;;;12.20;99.90;;;;;;5031518;28;20186;-83
2021/05/08 07:55:00;;;;;;;3.85;2.72;;;12.10;99.90;;;;;;5023998;28;20209;-80
2021/05/08 07:57:26;;;;;;;2.73;2.30;;;12.20;99.90;;;;;;5024762;28;20657;-79
2021/05/08 07:59:51;;;;;;;2.77;2.33;;;12.30;99.90;;;;;;5024571;28;20677;-79
2021/05/08 08:02:17;;;;;;;3.23;2.77;;;12.40;99.90;;;;;;5025407;28;20191;-82
2021/05/08 08:04:43;;;;;;;4.00;2.72;;;12.60;99.90;;;;;;5023824;28;20179;-79
2021/05/08 08:07:08;;;;;;;3.17;2.50;;;12.70;99.90;;;;;;5021145;28;20219;-79
2021/05/08 08:09:34;;;;;;;3.33;2.30;;;12.70;99.90;;;;;;5023127;28;20179;-77
2021/05/08 08:12:00;;;;;;;1.95;1.73;;;12.80;99.90;;;;;;5023029;28;20667;-78
2021/05/08 08:14:26;;;;;;;3.20;2.00;;;12.80;99.90;;;;;;5021346;28;20171;-78
2021/05/08 08:16:52;;;;;;;2.60;2.20;;;12.80;99.90;;;;;;5023029;28;20206;-78
2021/05/08 08:19:17;;;;;;;2.63;1.92;;;12.80;99.90;;;;;;5023119;28;20202;-78
2021/05/08 08:21:43;;;;;;;3.25;2.42;;;12.90;99.90;;;;;;5020841;28;20179;-77
2021/05/08 08:24:09;;;;;;;2.13;1.92;;;12.90;99.90;;;;;;5023214;28;20191;-78
2021/05/08 08:26:36;;;;;;;3.85;1.85;;;12.90;99.90;;;;;;5020638;28;20469;-77
2021/05/08 08:29:03;;;;;;;2.20;2.00;;;12.90;99.90;;;;;;5020940;28;20186;-77
2021/05/08 08:31:29;;;;;;;2.33;2.03;;;13.10;99.90;;;;;;5021844;28;20175;-77
2021/05/08 08:33:54;;;;;;;2.40;1.90;;;13.20;99.90;;;;;;5020263;28;20533;-75
2021/05/08 08:36:20;;;;;;;2.70;2.33;;;13.40;99.90;;;;;;5021058;28;20206;-77
2021/05/08 08:38:46;;;;;;;2.33;2.13;;;13.60;99.90;;;;;;5021047;28;20200;-77
2021/05/08 08:41:13;;;;;;;2.20;2.00;;;13.60;99.90;;;;;;5023100;28;20275;-77
2021/05/08 08:43:39;;;;;;;2.97;2.42;;;13.60;99.90;;;;;;5027990;28;20839;-76
2021/05/08 08:46:06;;;;;;;2.13;1.92;;;13.40;99.90;;;;;;5027493;28;20546;-76
2021/05/08 08:48:32;;;;;;;2.72;1.75;;;13.40;99.90;;;;;;5024507;28;20210;-76
2021/05/08 08:50:58;;;;;;;2.38;2.17;;;13.40;99.90;;;;;;5019520;28;20271;-77
2021/05/08 08:53:23;;;;;;;2.42;1.63;;;13.60;99.90;;;;;;5020528;28;20183;-77
2021/05/08 08:55:54;;;;;;;1.77;1.55;;;13.50;99.90;;;;;;5021326;28;20710;-77
2021/05/08 08:58:27;;;;;;;2.30;2.10;;;13.50;99.90;;;;;;5020907;28;20249;-77
2021/05/08 09:00:58;;;;;;;2.08;1.45;;;13.60;99.90;;;;;;5021578;28;20186;-75
2021/05/08 09:03:23;;;;;;;1.52;1.42;;;13.80;99.90;;;;;;5020722;28;20273;-77
2021/05/08 09:05:49;;;;;;;3.22;2.00;;;13.70;98.50;;;;;;5023910;28;20294;-76
2021/05/08 09:08:15;;;;;;;1.90;1.60;;;13.70;97.90;;;;;;5022352;28;20218;-77
2021/05/08 09:10:40;;;;;;;2.50;1.77;;;13.70;97.70;;;;;;5024621;28;20201;-77
2021/05/08 09:13:13;;;;;;;1.52;1.40;;;13.70;97.20;;;;;;5023921;28;20202;-77
2021/05/08 09:15:41;;;;;;;1.65;1.55;;;13.70;97.40;;;;;;5024167;28;20337;-77
2021/05/08 09:18:10;;;;;;;2.47;1.27;;;14.00;98.30;;;;;;5024298;28;20567;-77
2021/05/08 09:20:50;;;;;;;3.42;1.75;;;14.20;96.90;;;;;;5022346;28;20667;-78
2021/05/08 09:23:32;;;;;;;1.38;1.27;;;14.30;95.20;;;;;;5023944;28;20199;-76
2021/05/08 09:26:10;;;;;;;1.35;1.13;;;14.30;94.60;;;;;;5025453;28;20191;-78
2021/05/08 09:28:38;;;;;;;2.13;1.15;;;14.60;93.90;;;;;;5026815;28;20182;-79
2021/05/08 09:31:11;;;;;;;2.47;1.30;;;14.70;93.00;;;;;;5027645;28;20183;-76
2021/05/08 09:33:37;;;;;;;1.40;1.30;;;14.80;92.50;;;;;;5027966;28;20171;-78
2021/05/08 09:36:02;;;;;;;1.33;1.10;;;15.10;92.30;;;;;;5028221;28;20202;-77
2021/05/08 09:38:33;;;;;;;1.38;1.00;;;15.00;91.60;;;;;;5028190;28;20201;-77
2021/05/08 09:41:00;;;;;;;1.60;0.98;;;15.10;90.70;;;;;;5027143;28;20665;-77
2021/05/08 09:43:26;;;;;;;1.50;1.27;;;15.30;91.50;;;;;;5025358;28;20209;-75
2021/05/08 09:45:52;;;;;;;1.80;1.38;;;15.20;91.00;;;;;;5026815;28;20670;-78
2021/05/08 09:48:31;;;;;;;0.95;0.85;;;15.30;91.00;;;;;;5027747;28;20713;-77
2021/05/08 09:51:13;;;;;;;1.60;1.30;;;15.30;91.30;;;;;;5028713;28;20191;-77
2021/05/08 09:53:38;;;;;;;3.90;1.70;;;15.20;89.10;;;;;;5025455;28;20175;-77
2021/05/08 09:56:04;;;;;;;2.00;1.50;;;15.20;89.60;;;;;;5030072;28;20285;-76
2021/05/08 09:58:31;;;;;;;1.33;1.20;;;15.20;86.30;;;;;;5030556;28;20194;-77
2021/05/08 10:00:57;;;;;;;1.52;1.30;;;15.10;86.20;;;;;;5029678;28;20182;-76
2021/05/08 10:03:23;;;;;;;1.90;1.27;;;15.20;87.50;;;;;;5026116;28;20527;-77
2021/05/08 10:06:01;;;;;;;1.55;1.40;;;15.30;89.20;;;;;;5027602;28;20198;-76
2021/05/08 10:08:27;;;;;;;1.80;1.65;;;15.50;88.90;;;;;;5025527;28;20398;-77
2021/05/08 10:10:53;;;;;;;1.92;1.60;;;15.60;85.60;;;;;;5028253;28;20803;-76
2021/05/08 10:13:19;;;;;;;2.63;2.10;;;15.70;81.80;;;;;;5027238;28;20210;-77
2021/05/08 10:15:45;;;;;;;2.25;1.77;;;15.90;83.00;;;;;;5027183;28;20624;-77
2021/05/08 10:18:11;;;;;;;2.03;1.55;;;15.70;83.80;;;;;;5027860;28;20222;-78
2021/05/08 10:20:38;;;;;;;2.25;1.75;;;15.80;82.00;;;;;;5027606;28;20187;-75
2021/05/08 10:23:13;;;;;;;3.35;2.10;;;15.60;80.90;;;;;;5027904;28;20770;-78
2021/05/08 10:25:40;;;;;;;1.90;1.70;;;15.70;82.80;;;;;;5026730;28;20252;-76
2021/05/08 10:28:07;;;;;;;4.32;2.28;;;15.90;85.90;;;;;;5025505;28;20214;-78
2021/05/08 10:30:35;;;;;;;3.17;2.40;;;16.10;80.10;;;;;;5027124;28;20700;-77
2021/05/08 10:33:08;;;;;;;2.42;1.98;;;16.10;79.70;;;;;;5026934;28;20195;-77
2021/05/08 10:35:46;;;;;;;2.28;1.95;;;16.10;78.20;;;;;;5026819;28;20699;-78
2021/05/08 10:38:18;;;;;;;2.10;1.90;;;16.10;77.90;;;;;;5041735;28;20205;-77
2021/05/08 10:41:02;;;;;;;2.55;2.35;;;16.10;81.30;;;;;;5026419;28;20193;-78
2021/05/08 10:43:42;;;;;;;2.83;2.33;;;16.10;79.50;;;;;;5040766;28;20233;-77
2021/05/08 10:46:09;;;;;;;2.92;2.63;;;16.40;80.20;;;;;;5025582;28;20233;-77
2021/05/08 10:48:35;;;;;;;2.38;2.17;;;16.40;79.60;;;;;;5025668;28;20189;-77
2021/05/08 10:51:01;;;;;;;2.15;1.95;;;16.00;77.80;;;;;;5026704;28;20187;-77
2021/05/08 10:53:39;;;;;;;2.70;2.15;;;15.80;76.30;;;;;;5025853;28;20703;-77
2021/05/08 10:56:05;;;;;;;2.40;2.15;;;15.80;77.90;;;;;;5026625;28;20207;-77
2021/05/08 10:58:35;;;;;;;2.55;1.85;;;15.90;81.30;;;;;;5028071;28;20257;-78
2021/05/08 11:01:06;;;;;;;1.92;1.83;;;16.40;83.10;;;;;;5027591;28;20269;-78
2021/05/08 11:03:52;;;;;;;2.00;1.63;;;16.80;82.10;;;;;;5028228;28;20179;-77
2021/05/08 11:06:18;;;;;;;2.60;1.85;;;16.80;78.90;;;;;;5019627;28;21244;-78
2021/05/08 11:08:51;;;;;;;1.83;1.73;;;16.20;74.90;;;;;;5025282;28;20281;-77
2021/05/08 11:11:23;;;;;;;1.58;1.48;;;16.20;77.80;;;;;;5027119;28;20171;-78
2021/05/08 11:14:01;;;;;;;1.90;1.75;;;16.50;76.30;;;;;;5026469;28;20704;-78
2021/05/08 11:16:31;;;;;;;2.05;1.80;;;17.00;74.80;;;;;;5042318;28;20241;-77
2021/05/08 11:18:58;;;;;;;2.08;1.65;;;17.30;72.40;;;;;;5027100;28;20179;-77
2021/05/08 11:21:26;;;;;;;1.98;1.65;;;17.10;71.10;;;;;;5041890;28;20186;-77
2021/05/08 11:23:58;;;;;;;2.05;1.80;;;16.80;72.70;;;;;;5025662;28;20174;-75
2021/05/08 11:26:28;;;;;;;2.67;1.67;;;16.50;72.90;;;;;;5024176;28;20305;-76
2021/05/08 11:28:54;;;;;;;1.85;1.70;;;16.50;71.80;;;;;;5024124;28;20193;-79
2021/05/08 11:31:24;;;;;;;2.58;1.48;;;16.60;71.70;;;;;;5027508;28;20649;-77
2021/05/08 11:33:50;;;;;;;1.70;1.60;;;16.60;72.20;;;;;;5027208;28;20233;-78
2021/05/08 11:36:16;;;;;;;1.50;1.40;;;16.60;71.90;;;;;;5026189;28;20202;-78
2021/05/08 11:38:42;;;;;;;1.55;1.45;;;16.50;71.00;;;;;;5026515;28;20655;-77
2021/05/08 11:41:21;;;;;;;3.00;1.58;;;16.80;69.50;;;;;;5026739;28;20302;-77
2021/05/08 11:43:54;;;;;;;1.30;1.13;;;16.80;68.30;;;;;;5026327;28;20186;-78
2021/05/08 11:46:28;;;;;;;1.15;1.05;;;17.00;67.00;;;;;;5025629;28;20318;-76
2021/05/08 11:48:54;;;;;;;1.30;1.20;;;17.50;67.40;;;;;;5026584;28;20179;-78
2021/05/08 11:51:20;;;;;;;1.27;1.17;;;17.50;68.30;;;;;;5027096;28;20185;-76
2021/05/08 11:54:04;;;;;;;1.77;1.30;;;17.70;70.00;;;;;;5026715;28;20175;-78
2021/05/08 11:56:31;;;;;;;1.75;1.30;;;17.40;66.90;;;;;;5041300;28;20203;-78
2021/05/08 11:58:56;;;;;;;2.03;1.20;;;17.30;68.80;;;;;;5025415;28;20240;-78
2021/05/08 12:01:22;;;;;;;1.58;1.05;;;17.30;68.20;;;;;;5026633;28;20187;-77
2021/05/08 12:03:54;;;;;;;2.25;1.25;;;17.50;69.00;;;;;;5026242;28;20194;-77
2021/05/08 12:06:20;;;;;;;1.90;1.20;;;17.30;69.50;;;;;;5025109;28;20677;-78
2021/05/08 12:08:46;;;;;;;1.63;1.40;;;17.10;69.60;;;;;;5024779;28;20182;-75
2021/05/08 12:11:19;;;;;;;3.95;1.30;;;17.00;67.90;;;;;;5026710;28;20183;-74
2021/05/08 12:13:45;;;;;;;1.90;1.30;;;17.10;68.60;;;;;;5025897;28;20418;-78
2021/05/08 12:16:11;;;;;;;1.67;1.20;;;17.10;68.40;;;;;;5027318;28;20380;-78
2021/05/08 12:18:38;;;;;;;2.13;1.38;;;17.20;69.20;;;;;;5027227;28;20333;-78
2021/05/08 12:21:10;;;;;;;1.27;1.15;;;17.40;67.30;;;;;;5027111;28;20422;-77
2021/05/08 12:23:36;;;;;;;1.25;1.10;;;17.30;65.60;;;;;;5027477;28;20544;-78
2021/05/08 12:26:05;;;;;;;1.42;1.20;;;17.50;68.10;;;;;;5025888;28;20213;-77
2021/05/08 12:28:31;;;;;;;1.50;1.20;;;18.00;68.10;;;;;;5026729;28;20178;-77
2021/05/08 12:30:57;;;;;;;1.45;1.10;;;18.20;67.20;;;;;;5026068;28;20649;-78
2021/05/08 12:33:24;;;;;;;1.38;1.10;;;18.10;65.60;;;;;;5024605;28;20237;-77
2021/05/08 12:35:52;;;;;;;1.50;1.35;;;18.30;66.60;;;;;;5028620;28;20203;-78
2021/05/08 12:38:17;;;;;;;1.80;1.25;;;18.50;64.70;;;;;;5026642;28;20206;-77
2021/05/08 12:40:46;;;;;;;1.20;1.10;;;18.70;66.20;;;;;;5026994;28;20237;-77
2021/05/08 12:43:29;;;;;;;1.88;1.20;;;18.50;63.50;;;;;;5024970;28;20282;-76
2021/05/08 12:46:12;;;;;;;1.33;1.20;;;18.40;63.70;;;;;;5025303;28;20202;-78
2021/05/08 12:48:40;;;;;;;2.10;1.60;;;17.90;67.50;;;;;;5028924;28;20186;-76